createdAt,value
2018-09-05T00:00:06.959Z,101323.95
2018-09-05T00:02:35.092Z,101320.34
2018-09-05T00:05:03.641Z,101321.17
2018-09-05T00:07:32.270Z,101324.38
2018-09-05T00:10:00.369Z,101330.66
2018-09-05T00:12:28.475Z,101326.68
2018-09-05T00:14:56.584Z,101322.89
2018-09-05T00:17:24.787Z,101326.62
2018-09-05T00:19:53.247Z,101324.06
2018-09-05T00:22:21.893Z,101320.14
2018-09-05T00:24:50.005Z,101319.78
2018-09-05T00:27:18.711Z,101317.36
2018-09-05T00:29:47.157Z,101317.48
2018-09-05T00:32:16.227Z,101317.81
2018-09-05T00:34:44.684Z,101312.17
2018-09-05T00:37:12.788Z,101316.21
2018-09-05T00:39:41.603Z,101315.48
2018-09-05T00:42:09.708Z,101310.30
2018-09-05T00:44:38.175Z,101309.70
2018-09-05T00:47:06.615Z,101311.36
2018-09-05T00:49:34.734Z,101309.81
2018-09-05T00:52:03.891Z,101305.31
2018-09-05T00:54:32.328Z,101311.06
2018-09-05T00:57:00.771Z,101309.86
2018-09-05T00:59:29.206Z,101307.30
2018-09-05T01:01:57.648Z,101315.62
2018-09-05T01:04:25.979Z,101310.63
2018-09-05T01:06:55.516Z,101311.80
2018-09-05T01:09:23.825Z,101308.88
2018-09-05T01:11:52.348Z,101303.88
2018-09-05T01:14:20.776Z,101309.08
2018-09-05T01:16:48.870Z,101307.33
2018-09-05T01:19:17.299Z,101305.42
2018-09-05T01:21:45.388Z,101304.16
2018-09-05T01:24:13.587Z,101303.77
2018-09-05T01:26:42.184Z,101305.23
2018-09-05T01:29:10.538Z,101302.80
2018-09-05T01:31:39.436Z,101305.13
2018-09-05T01:34:07.562Z,101311.43
2018-09-05T01:36:36.216Z,101312.44
2018-09-05T01:39:06.267Z,101308.86
2018-09-05T01:41:34.936Z,101310.71
2018-09-05T01:44:03.383Z,101308.31
2018-09-05T01:46:32.005Z,101307.20
2018-09-05T01:49:00.446Z,101318.03
2018-09-05T01:51:32.955Z,101315.30
2018-09-05T01:54:02.107Z,101318.75
2018-09-05T01:56:31.184Z,101313.30
2018-09-05T01:58:59.619Z,101315.50
2018-09-05T02:01:28.056Z,101313.23
2018-09-05T02:03:56.688Z,101318.00
2018-09-05T02:06:25.428Z,101303.58
2018-09-05T02:08:55.650Z,101313.53
2018-09-05T02:11:24.517Z,101309.92
2018-09-05T02:13:52.615Z,101318.19
2018-09-05T02:16:21.059Z,101318.27
2018-09-05T02:18:49.536Z,101318.42
2018-09-05T02:21:17.655Z,101310.25
2018-09-05T02:23:45.768Z,101313.31
2018-09-05T02:26:14.207Z,101312.46
2018-09-05T02:28:42.311Z,101310.25
2018-09-05T02:31:10.439Z,101306.30
2018-09-05T02:33:38.931Z,101303.77
2018-09-05T02:36:07.318Z,101302.64
2018-09-05T02:38:35.736Z,101305.69
2018-09-05T02:41:03.926Z,101306.77
2018-09-05T02:43:37.306Z,101309.85
2018-09-05T02:46:05.996Z,101307.05
2018-09-05T02:48:34.454Z,101312.46
2018-09-05T02:51:03.410Z,101309.66
2018-09-05T02:53:31.942Z,101311.98
2018-09-05T02:56:02.694Z,101313.43
2018-09-05T02:58:32.716Z,101307.38
2018-09-05T03:01:01.289Z,101302.73
2018-09-05T03:03:29.998Z,101296.05
2018-09-05T03:05:58.856Z,101301.01
2018-09-05T03:08:27.459Z,101293.33
2018-09-05T03:10:55.978Z,101294.84
2018-09-05T03:13:24.623Z,101298.41
2018-09-05T03:15:52.707Z,101296.48
2018-09-05T03:18:20.827Z,101301.31
2018-09-05T03:20:49.467Z,101299.39
2018-09-05T03:23:17.627Z,101295.61
2018-09-05T03:25:46.152Z,101302.15
2018-09-05T03:28:14.436Z,101300.19
2018-09-05T03:30:42.769Z,101302.55
2018-09-05T03:33:10.871Z,101300.30
2018-09-05T03:35:39.600Z,101298.47
2018-09-05T03:38:08.048Z,101296.98
2018-09-05T03:40:36.566Z,101300.12
2018-09-05T03:43:05.016Z,101297.69
2018-09-05T03:45:33.464Z,101299.49
2018-09-05T03:48:01.563Z,101306.70
2018-09-05T03:50:30.231Z,101297.23
2018-09-05T03:52:58.328Z,101303.55
2018-09-05T03:55:26.680Z,101307.91
2018-09-05T03:57:54.904Z,101302.54
2018-09-05T04:00:23.584Z,101303.48
2018-09-05T04:02:51.683Z,101302.72
2018-09-05T04:05:20.779Z,101302.78
2018-09-05T04:07:51.077Z,101303.33
2018-09-05T04:10:19.385Z,101312.92
2018-09-05T04:12:47.719Z,101316.34
2018-09-05T04:15:16.148Z,101316.08
2018-09-05T04:17:44.504Z,101314.89
2018-09-05T04:20:13.388Z,101318.06
2018-09-05T04:22:41.837Z,101312.38
2018-09-05T04:25:10.700Z,101310.66
2018-09-05T04:27:38.803Z,101307.61
2018-09-05T04:30:07.376Z,101315.05
2018-09-05T04:32:35.771Z,101319.17
2018-09-05T04:35:03.917Z,101322.25
2018-09-05T04:37:32.029Z,101323.20
2018-09-05T04:40:00.505Z,101328.20
2018-09-05T04:42:29.112Z,101322.77
2018-09-05T04:44:57.480Z,101331.14
2018-09-05T04:47:26.106Z,101326.55
2018-09-05T04:49:55.818Z,101319.48
2018-09-05T04:52:24.288Z,101319.13
2018-09-05T04:54:52.456Z,101320.94
2018-09-05T04:57:21.095Z,101328.34
2018-09-05T04:59:49.216Z,101327.48
2018-09-05T05:02:17.652Z,101332.39
2018-09-05T05:04:46.117Z,101325.70
2018-09-05T05:07:14.243Z,101329.61
2018-09-05T05:09:42.360Z,101330.91
2018-09-05T05:12:10.793Z,101335.88
2018-09-05T05:14:39.155Z,101340.24
2018-09-05T05:17:07.477Z,101337.64
2018-09-05T05:19:36.157Z,101333.94
2018-09-05T05:22:04.266Z,101340.46
2018-09-05T05:24:32.371Z,101337.81
2018-09-05T05:27:00.492Z,101335.56
2018-09-05T05:29:28.672Z,101341.58
2018-09-05T05:31:56.828Z,101345.87
2018-09-05T05:34:25.361Z,101344.30
2018-09-05T05:36:54.239Z,101351.72
2018-09-05T05:39:22.915Z,101357.88
2018-09-05T05:41:51.473Z,101368.82
2018-09-05T05:44:19.819Z,101358.89
2018-09-05T05:46:47.953Z,101367.73
2018-09-05T05:49:16.246Z,101360.80
2018-09-05T05:51:44.397Z,101364.41
2018-09-05T05:54:12.833Z,101370.37
2018-09-05T05:56:41.285Z,101368.69
2018-09-05T05:59:09.712Z,101373.97
2018-09-05T06:01:38.425Z,101370.02
2018-09-05T06:04:06.723Z,101376.38
2018-09-05T06:06:35.167Z,101370.29
2018-09-05T06:09:08.189Z,101371.92
2018-09-05T06:11:36.300Z,101372.50
2018-09-05T06:14:05.128Z,101376.91
2018-09-05T06:16:33.932Z,101373.52
2018-09-05T06:19:02.284Z,101371.58
2018-09-05T06:21:30.457Z,101366.16
2018-09-05T06:23:58.942Z,101377.05
2018-09-05T06:26:27.548Z,101379.33
2018-09-05T06:28:56.008Z,101381.67
2018-09-05T06:31:24.484Z,101379.61
2018-09-05T06:33:52.927Z,101379.61
2018-09-05T06:36:21.618Z,101373.34
2018-09-05T06:38:49.692Z,101378.44
2018-09-05T06:41:18.260Z,101384.28
2018-09-05T06:43:46.382Z,101385.19
2018-09-05T06:46:14.503Z,101383.92
2018-09-05T06:48:42.596Z,101384.48
2018-09-05T06:51:10.724Z,101386.67
2018-09-05T06:53:39.559Z,101382.36
2018-09-05T06:56:08.572Z,101384.05
2018-09-05T06:58:36.940Z,101386.84
2018-09-05T07:01:05.655Z,101387.55
2018-09-05T07:03:34.187Z,101381.03
2018-09-05T07:06:02.772Z,101385.70
2018-09-05T07:08:31.243Z,101378.77
2018-09-05T07:11:00.194Z,101380.42
2018-09-05T07:13:28.680Z,101381.55
2018-09-05T07:15:57.262Z,101382.89
2018-09-05T07:18:25.826Z,101389.16
2018-09-05T07:21:05.684Z,101390.13
2018-09-05T07:23:22.812Z,101383.55
2018-09-05T07:25:51.279Z,101391.45
2018-09-05T07:28:19.827Z,101387.38
2018-09-05T07:30:48.375Z,101387.54
2018-09-05T07:33:16.988Z,101394.26
2018-09-05T07:35:45.621Z,101388.47
2018-09-05T07:38:14.275Z,101389.25
2018-09-05T07:40:42.719Z,101391.98
2018-09-05T07:43:11.184Z,101404.31
2018-09-05T07:45:39.288Z,101399.86
2018-09-05T07:48:07.431Z,101403.11
2018-09-05T07:50:35.765Z,101398.16
2018-09-05T07:53:04.635Z,101397.45
2018-09-05T07:55:33.123Z,101396.11
2018-09-05T07:58:01.772Z,101398.63
2018-09-05T08:00:30.556Z,101391.57
2018-09-05T08:02:59.263Z,101392.13
2018-09-05T08:05:27.848Z,101389.15
2018-09-05T08:07:57.213Z,101391.12
2018-09-05T08:10:25.808Z,101392.84
2018-09-05T08:12:53.941Z,101394.36
2018-09-05T08:15:22.389Z,101392.78
2018-09-05T08:17:50.849Z,101394.59
2018-09-05T08:20:19.283Z,101397.58
2018-09-05T08:22:47.740Z,101401.14
2018-09-05T08:25:16.191Z,101395.23
2018-09-05T08:27:44.842Z,101396.88
2018-09-05T08:30:13.285Z,101391.28
2018-09-05T08:32:41.755Z,101391.73
2018-09-05T08:35:10.357Z,101393.22
2018-09-05T08:37:38.647Z,101389.70
2018-09-05T08:40:07.826Z,101385.38
2018-09-05T08:42:36.929Z,101382.66
2018-09-05T08:45:06.455Z,101391.34
2018-09-05T08:47:34.575Z,101392.46
2018-09-05T08:50:02.834Z,101383.30
2018-09-05T08:52:31.259Z,101388.88
2018-09-05T08:55:00.001Z,101390.31
2018-09-05T08:57:28.616Z,101388.86
2018-09-05T08:59:56.744Z,101385.61
2018-09-05T09:02:25.198Z,101381.53
2018-09-05T09:04:53.553Z,101386.75
2018-09-05T09:07:22.240Z,101392.97
2018-09-05T09:09:50.372Z,101381.39
2018-09-05T09:12:18.750Z,101381.09
2018-09-05T09:14:47.221Z,101381.20
2018-09-05T09:19:52.175Z,101373.44
2018-09-05T09:22:20.264Z,101377.86
2018-09-05T09:24:48.567Z,101378.03
2018-09-05T09:27:17.036Z,101377.45
2018-09-05T09:29:45.483Z,101375.03
2018-09-05T09:32:14.105Z,101376.40
2018-09-05T09:34:42.611Z,101369.51
2018-09-05T09:37:11.500Z,101369.93
2018-09-05T09:39:39.949Z,101367.63
2018-09-05T09:42:08.625Z,101361.76
2018-09-05T09:44:36.747Z,101360.34
2018-09-05T09:47:05.211Z,101355.51
2018-09-05T09:49:33.666Z,101355.84
2018-09-05T09:52:07.825Z,101357.53
2018-09-05T09:54:36.280Z,101352.78
2018-09-05T09:57:04.468Z,101339.61
2018-09-05T09:59:32.908Z,101347.77
2018-09-05T10:02:06.676Z,101355.11
2018-09-05T10:04:40.443Z,101349.58
2018-09-05T10:07:15.717Z,101347.97
2018-09-05T10:09:49.586Z,101349.92
2018-09-05T10:12:23.615Z,101340.09
2018-09-05T10:14:57.531Z,101340.94
2018-09-05T10:17:33.971Z,101339.59
2018-09-05T10:20:03.006Z,101338.62
2018-09-05T10:22:32.206Z,101336.06
2018-09-05T10:25:01.040Z,101337.09
2018-09-05T10:27:31.091Z,101331.50
2018-09-05T10:29:59.557Z,101330.39
2018-09-05T10:32:27.991Z,101333.39
2018-09-05T10:34:56.860Z,101329.83
2018-09-05T10:37:26.011Z,101330.70
2018-09-05T10:39:56.211Z,101323.34
2018-09-05T10:42:24.668Z,101321.13
2018-09-05T10:44:53.148Z,101323.51
2018-09-05T10:47:21.589Z,101324.90
2018-09-05T10:49:50.037Z,101315.86
2018-09-05T10:52:18.675Z,101314.63
2018-09-05T10:54:47.132Z,101311.61
2018-09-05T10:57:15.424Z,101309.91
2018-09-05T10:59:44.118Z,101306.84
2018-09-05T11:02:12.229Z,101301.63
2018-09-05T11:04:40.686Z,101300.33
2018-09-05T11:07:09.141Z,101295.68
2018-09-05T11:09:37.236Z,101304.60
2018-09-05T11:12:05.792Z,101294.61
2018-09-05T11:14:33.892Z,101289.13
2018-09-05T11:17:02.339Z,101291.28
2018-09-05T11:19:30.753Z,101291.39
2018-09-05T11:21:58.999Z,101291.63
2018-09-05T11:24:27.487Z,101291.76
2018-09-05T11:26:55.804Z,101292.58
2018-09-05T11:29:23.920Z,101296.97
2018-09-05T11:31:52.360Z,101296.99
2018-09-05T11:34:20.472Z,101293.30
2018-09-05T11:36:48.579Z,101289.45
2018-09-05T11:39:17.247Z,101291.66
2018-09-05T11:41:45.408Z,101290.42
2018-09-05T11:44:13.672Z,101291.20
2018-09-05T11:46:42.131Z,101284.73
2018-09-05T11:49:10.256Z,101295.42
2018-09-05T11:51:38.607Z,101289.39
2018-09-05T11:54:07.229Z,101291.59
2018-09-05T11:56:35.556Z,101288.11
2018-09-05T11:59:04.462Z,101292.86
2018-09-05T12:01:32.916Z,101290.20
2018-09-05T12:04:01.351Z,101284.55
2018-09-05T12:06:29.789Z,101275.25
2018-09-05T12:09:00.069Z,101276.82
2018-09-05T12:11:28.181Z,101281.70
2018-09-05T12:13:57.067Z,101280.19
2018-09-05T12:16:25.191Z,101285.36
2018-09-05T12:18:53.833Z,101283.95
2018-09-05T12:21:23.967Z,101280.38
2018-09-05T12:23:52.383Z,101276.03
2018-09-05T12:26:21.325Z,101271.47
2018-09-05T12:28:50.125Z,101267.98
2018-09-05T12:31:18.610Z,101269.38
2018-09-05T12:33:47.158Z,101269.52
2018-09-05T12:36:15.879Z,101259.69
2018-09-05T12:38:43.989Z,101257.28
2018-09-05T12:41:12.762Z,101256.80
2018-09-05T12:43:41.463Z,101253.15
2018-09-05T12:46:09.691Z,101254.23
2018-09-05T12:48:37.818Z,101243.91
2018-09-05T12:51:06.703Z,101253.95
2018-09-05T12:53:35.144Z,101240.56
2018-09-05T12:56:03.275Z,101239.48
2018-09-05T12:58:31.399Z,101232.45
2018-09-05T13:01:00.090Z,101225.70
2018-09-05T13:03:28.724Z,101228.70
2018-09-05T13:05:57.605Z,101224.93
2018-09-05T13:08:26.080Z,101226.10
2018-09-05T13:10:54.401Z,101228.66
2018-09-05T13:13:22.869Z,101222.21
2018-09-05T13:15:51.372Z,101229.30
2018-09-05T13:18:20.021Z,101220.28
2018-09-05T13:20:48.472Z,101218.50
2018-09-05T13:23:16.938Z,101214.63
2018-09-05T13:25:45.391Z,101220.91
2018-09-05T13:28:13.837Z,101217.33
2018-09-05T13:30:41.959Z,101212.95
2018-09-05T13:33:10.141Z,101204.98
2018-09-05T13:35:38.726Z,101209.13
2018-09-05T13:38:06.918Z,101207.86
2018-09-05T13:40:35.363Z,101198.75
2018-09-05T13:43:04.111Z,101195.58
2018-09-05T13:45:32.468Z,101199.48
2018-09-05T13:48:00.591Z,101192.33
2018-09-05T13:50:28.696Z,101198.62
2018-09-05T13:52:56.872Z,101194.41
2018-09-05T13:55:25.363Z,101187.78
2018-09-05T13:57:53.959Z,101188.10
2018-09-05T14:00:22.981Z,101190.71
2018-09-05T14:02:51.135Z,101184.63
2018-09-05T14:05:19.766Z,101182.50
2018-09-05T14:07:49.857Z,101185.30
2018-09-05T14:10:18.884Z,101183.62
2018-09-05T14:12:47.664Z,101179.31
2018-09-05T14:15:16.379Z,101171.31
2018-09-05T14:17:44.985Z,101172.18
2018-09-05T14:20:13.473Z,101172.16
2018-09-05T14:22:42.029Z,101169.44
2018-09-05T14:25:10.160Z,101168.92
2018-09-05T14:27:38.641Z,101167.72
2018-09-05T14:30:06.952Z,101168.11
2018-09-05T14:32:35.600Z,101167.06
2018-09-05T14:35:04.548Z,101166.57
2018-09-05T14:37:33.005Z,101165.28
2018-09-05T14:40:01.532Z,101168.33
2018-09-05T14:42:31.119Z,101161.19
2018-09-05T14:44:59.492Z,101157.12
2018-09-05T14:47:27.952Z,101163.69
2018-09-05T14:49:56.137Z,101156.50
2018-09-05T14:52:24.580Z,101158.20
2018-09-05T14:54:53.597Z,101157.95
2018-09-05T14:57:22.272Z,101153.96
2018-09-05T14:59:50.773Z,101159.34
2018-09-05T15:02:19.503Z,101150.83
2018-09-05T15:04:48.212Z,101150.45
2018-09-05T15:07:16.647Z,101147.19
2018-09-05T15:09:45.093Z,101146.31
2018-09-05T15:12:13.282Z,101133.89
2018-09-05T15:14:41.609Z,101135.97
2018-09-05T15:17:09.938Z,101137.84
2018-09-05T15:19:38.635Z,101132.68
2018-09-05T15:22:06.855Z,101128.52
2018-09-05T15:24:35.605Z,101130.15
2018-09-05T15:27:04.064Z,101128.09
2018-09-05T15:29:32.516Z,101126.37
2018-09-05T15:32:01.003Z,101125.53
2018-09-05T15:34:29.704Z,101128.72
2018-09-05T15:36:58.152Z,101134.16
2018-09-05T15:39:26.689Z,101123.45
2018-09-05T15:41:55.327Z,101116.35
2018-09-05T15:44:23.772Z,101124.23
2018-09-05T15:46:52.308Z,101119.64
2018-09-05T15:49:20.981Z,101113.57
2018-09-05T15:51:54.206Z,101110.55
2018-09-05T15:54:23.908Z,101116.84
2018-09-05T15:56:52.803Z,101121.00
2018-09-05T15:59:21.423Z,101111.05
2018-09-05T16:01:49.794Z,101118.35
2018-09-05T16:04:18.436Z,101117.23
2018-09-05T16:06:46.943Z,101120.61
2018-09-05T16:09:15.481Z,101115.27
2018-09-05T16:11:45.589Z,101116.78
2018-09-05T16:14:13.717Z,101113.09
2018-09-05T16:16:41.931Z,101116.70
2018-09-05T16:19:10.276Z,101117.77
2018-09-05T16:21:38.413Z,101112.41
2018-09-05T16:24:06.935Z,101115.45
2018-09-05T16:26:35.309Z,101106.30
2018-09-05T16:29:04.016Z,101108.84
2018-09-05T16:31:32.182Z,101106.70
2018-09-05T16:34:00.737Z,101110.57
2018-09-05T16:36:28.852Z,101100.55
2018-09-05T16:38:56.980Z,101101.42
2018-09-05T16:41:25.445Z,101096.31
2018-09-05T16:43:53.908Z,101097.01
2018-09-05T16:46:22.353Z,101105.64
2018-09-05T16:48:50.814Z,101092.98
2018-09-05T16:51:19.460Z,101097.80
2018-09-05T16:53:47.572Z,101096.22
2018-09-05T16:56:16.875Z,101093.20
2018-09-05T16:58:45.963Z,101088.64
2018-09-05T17:01:14.416Z,101094.65
2018-09-05T17:03:42.865Z,101094.56
2018-09-05T17:06:11.319Z,101092.77
2018-09-05T17:08:39.463Z,101088.84
2018-09-05T17:11:07.585Z,101085.84
2018-09-05T17:13:36.251Z,101079.70
2018-09-05T17:16:04.619Z,101085.56
2018-09-05T17:18:33.435Z,101087.67
2018-09-05T17:21:02.376Z,101090.33
2018-09-05T17:23:30.829Z,101091.29
2018-09-05T17:25:59.520Z,101092.85
2018-09-05T17:28:30.496Z,101092.88
2018-09-05T17:30:59.101Z,101100.28
2018-09-05T17:33:27.596Z,101093.70
2018-09-05T17:35:57.288Z,101094.52
2018-09-05T17:38:26.768Z,101100.68
2018-09-05T17:40:55.220Z,101094.30
2018-09-05T17:43:23.367Z,101090.45
2018-09-05T17:45:52.059Z,101094.80
2018-09-05T17:48:21.481Z,101097.56
2018-09-05T17:50:52.654Z,101099.72
2018-09-05T17:53:21.384Z,101088.03
2018-09-05T17:55:49.840Z,101092.89
2018-09-05T17:58:18.755Z,101096.89
2018-09-05T18:00:46.929Z,101088.03
2018-09-05T18:03:15.038Z,101095.00
2018-09-05T18:05:43.481Z,101091.58
2018-09-05T18:08:12.223Z,101091.02
2018-09-05T18:10:40.560Z,101090.77
2018-09-05T18:13:09.636Z,101095.69
2018-09-05T18:15:38.120Z,101098.94
2018-09-05T18:18:07.740Z,101094.09
2018-09-05T18:20:37.115Z,101093.75
2018-09-05T18:23:05.360Z,101096.52
2018-09-05T18:25:35.220Z,101101.02
2018-09-05T18:28:03.664Z,101099.45
2018-09-05T18:30:32.171Z,101106.49
2018-09-05T18:33:00.624Z,101107.98
2018-09-05T18:35:29.274Z,101105.19
2018-09-05T18:37:57.754Z,101097.36
2018-09-05T18:40:26.405Z,101108.13
2018-09-05T18:42:54.558Z,101109.44
2018-09-05T18:45:23.212Z,101106.10
2018-09-05T18:47:51.326Z,101109.83
2018-09-05T18:50:19.455Z,101108.73
2018-09-05T18:52:47.917Z,101115.66
2018-09-05T18:55:16.692Z,101109.58
2018-09-05T18:57:45.183Z,101106.53
2018-09-05T19:00:13.588Z,101109.33
2018-09-05T19:02:42.079Z,101109.24
2018-09-05T19:05:10.559Z,101106.28
2018-09-05T19:07:38.675Z,101110.14
2018-09-05T19:10:07.360Z,101111.26
2018-09-05T19:12:35.806Z,101110.05
2018-09-05T19:15:04.377Z,101100.67
2018-09-05T19:17:32.844Z,101111.08
2018-09-05T19:20:01.326Z,101108.63
2018-09-05T19:22:29.815Z,101104.28
2018-09-05T19:24:58.060Z,101102.80
2018-09-05T19:27:26.217Z,101107.30
2018-09-05T19:32:44.818Z,101107.46
2018-09-05T19:35:13.092Z,101103.88
2018-09-05T19:37:41.624Z,101109.23
2018-09-05T19:40:10.185Z,101108.91
2018-09-05T19:42:38.521Z,101104.11
2018-09-05T19:45:07.217Z,101103.44
2018-09-05T19:47:35.426Z,101095.25
2018-09-05T19:50:04.533Z,101095.82
2018-09-05T19:52:33.200Z,101098.27
2018-09-05T19:55:01.312Z,101098.52
2018-09-05T19:57:30.029Z,101089.47
2018-09-05T19:59:58.404Z,101089.36
2018-09-05T20:02:26.876Z,101090.63
2018-09-05T20:04:55.333Z,101091.52
2018-09-05T20:07:25.251Z,101090.34
2018-09-05T20:09:53.580Z,101091.72
2018-09-05T20:12:21.953Z,101084.02
2018-09-05T20:14:50.328Z,101084.85
2018-09-05T20:17:19.260Z,101091.92
2018-09-05T20:19:47.716Z,101080.63
2018-09-05T20:22:16.060Z,101080.00
2018-09-05T20:24:44.508Z,101086.89
2018-09-05T20:27:12.649Z,101082.27
2018-09-05T20:29:40.972Z,101078.70
2018-09-05T20:32:09.457Z,101081.36
2018-09-05T20:34:37.585Z,101081.72
2018-09-05T20:37:05.972Z,101081.59
2018-09-05T20:39:34.100Z,101073.84
2018-09-05T20:42:02.224Z,101071.61
2018-09-05T20:44:30.686Z,101072.05
2018-09-05T20:46:59.433Z,101071.13
2018-09-05T20:49:27.781Z,101068.48
2018-09-05T20:51:55.921Z,101077.98
2018-09-05T20:54:24.408Z,101068.11
2018-09-05T20:56:52.868Z,101061.98
2018-09-05T20:59:21.000Z,101067.96
2018-09-05T21:01:49.145Z,101069.55
2018-09-05T21:04:17.596Z,101067.68
2018-09-05T21:06:48.753Z,101065.80
2018-09-05T21:09:18.165Z,101063.44
2018-09-05T21:11:46.297Z,101063.30
2018-09-05T21:14:14.766Z,101059.19
2018-09-05T21:16:43.237Z,101061.77
2018-09-05T21:19:11.380Z,101063.34
2018-09-05T21:21:40.054Z,101064.02
2018-09-05T21:24:08.401Z,101067.45
2018-09-05T21:26:36.925Z,101065.56
2018-09-05T21:29:05.556Z,101072.26
2018-09-05T21:31:34.033Z,101071.55
2018-09-05T21:34:02.553Z,101071.20
2018-09-05T21:36:31.142Z,101066.77
2018-09-05T21:38:59.345Z,101060.42
2018-09-05T21:41:27.619Z,101060.27
2018-09-05T21:43:56.284Z,101057.35
2018-09-05T21:46:24.957Z,101060.77
2018-09-05T21:48:54.004Z,101058.03
2018-09-05T21:51:22.135Z,101063.66
2018-09-05T21:53:50.292Z,101068.25
2018-09-05T21:56:18.432Z,101057.30
2018-09-05T21:58:46.584Z,101059.17
2018-09-05T22:01:16.193Z,101060.55
2018-09-05T22:03:44.362Z,101063.95
2018-09-05T22:06:13.197Z,101062.70
2018-09-05T22:08:41.549Z,101055.36
2018-09-05T22:11:15.128Z,101059.08
2018-09-05T22:13:43.539Z,101062.48
2018-09-05T22:16:11.884Z,101059.75
2018-09-05T22:18:40.225Z,101059.20
2018-09-05T22:21:08.700Z,101056.64
2018-09-05T22:23:37.227Z,101055.25
2018-09-05T22:26:07.157Z,101051.16
2018-09-05T22:28:35.932Z,101053.19
2018-09-05T22:31:04.388Z,101057.42
2018-09-05T22:33:32.520Z,101061.16
2018-09-05T22:36:00.644Z,101051.92
2018-09-05T22:38:28.792Z,101052.59
2018-09-05T22:40:57.252Z,101054.80
2018-09-05T22:43:37.479Z,101047.97
2018-09-05T22:46:17.016Z,101049.47
2018-09-05T22:48:56.581Z,101047.58
2018-09-05T22:52:10.885Z,101051.14
2018-09-05T22:54:56.009Z,101047.89
2018-09-05T22:58:40.380Z,101039.52
2018-09-05T23:01:19.269Z,101039.63
2018-09-05T23:04:05.169Z,101042.31
2018-09-05T23:06:43.525Z,101035.12
2018-09-05T23:09:12.017Z,101022.10
2018-09-05T23:11:49.290Z,101031.16
2018-09-05T23:15:28.955Z,101031.34
2018-09-05T23:18:11.261Z,101027.56
2018-09-05T23:21:05.010Z,101026.67
2018-09-05T23:23:44.344Z,101024.95
2018-09-05T23:26:12.828Z,101028.56
2018-09-05T23:28:40.993Z,101024.82
2018-09-05T23:31:09.466Z,101020.20
2018-09-05T23:33:37.969Z,101005.52
2018-09-05T23:36:06.185Z,101004.98
2018-09-05T23:38:34.349Z,101000.36
2018-09-05T23:41:03.097Z,101001.55
2018-09-05T23:43:31.657Z,100993.53
2018-09-05T23:46:00.733Z,100994.55
2018-09-05T23:48:29.452Z,100991.42
2018-09-05T23:50:58.001Z,100988.87
2018-09-05T23:53:26.514Z,100990.41
2018-09-05T23:55:54.813Z,100983.89
2018-09-05T23:58:23.892Z,100988.81
